sensor_id;sensor_type;location;lat;lon;timestamp;P1;durP1;ratioP1;P2;durP2;ratioP2
29430;SDS011;16404;49.902;10.074;2023-11-19T00:00:10;24.67;;;15.32;;
29430;SDS011;16404;49.902;10.074;2023-11-19T00:02:55;25.13;;;14.13;;
29430;SDS011;16404;49.902;10.074;2023-11-19T00:05:40;23.83;;;14.52;;
29430;SDS011;16404;49.902;10.074;2023-11-19T00:11:10;22.80;;;12.00;;
29430;SDS011;16404;49.902;10.074;2023-11-19T00:13:59;22.55;;;11.50;;
29430;SDS011;16404;49.902;10.074;2023-11-19T00:16:43;21.67;;;12.18;;
29430;SDS011;16404;49.902;10.074;2023-11-19T00:19:28;22.17;;;11.80;;
29430;SDS011;16404;49.902;10.074;2023-11-19T00:22:13;17.70;;;11.60;;
29430;SDS011;16404;49.902;10.074;2023-11-19T00:24:57;23.05;;;11.90;;
29430;SDS011;16404;49.902;10.074;2023-11-19T00:27:42;15.77;;;10.75;;
29430;SDS011;16404;49.902;10.074;2023-11-19T00:30:29;19.75;;;11.30;;
29430;SDS011;16404;49.902;10.074;2023-11-19T00:33:15;17.67;;;11.07;;
29430;SDS011;16404;49.902;10.074;2023-11-19T00:35:59;18.25;;;10.77;;
29430;SDS011;16404;49.902;10.074;2023-11-19T00:38:44;18.27;;;11.18;;
29430;SDS011;16404;49.902;10.074;2023-11-19T00:41:29;20.02;;;11.07;;
29430;SDS011;16404;49.902;10.074;2023-11-19T00:44:13;19.02;;;10.32;;
29430;SDS011;16404;49.902;10.074;2023-11-19T00:46:58;16.08;;;10.45;;
29430;SDS011;16404;49.902;10.074;2023-11-19T00:49:44;17.98;;;10.77;;
29430;SDS011;16404;49.902;10.074;2023-11-19T00:52:28;17.00;;;9.88;;
29430;SDS011;16404;49.902;10.074;2023-11-19T00:55:13;16.95;;;10.27;;
29430;SDS011;16404;49.902;10.074;2023-11-19T00:57:58;17.27;;;9.60;;
29430;SDS011;16404;49.902;10.074;2023-11-19T01:00:42;17.70;;;9.88;;
29430;SDS011;16404;49.902;10.074;2023-11-19T01:03:28;13.07;;;9.15;;
29430;SDS011;16404;49.902;10.074;2023-11-19T01:06:13;13.32;;;9.02;;
29430;SDS011;16404;49.902;10.074;2023-11-19T01:08:59;16.45;;;9.00;;
29430;SDS011;16404;49.902;10.074;2023-11-19T01:14:29;12.18;;;7.28;;
29430;SDS011;16404;49.902;10.074;2023-11-19T01:20:00;11.55;;;7.72;;
29430;SDS011;16404;49.902;10.074;2023-11-19T01:22:45;13.35;;;7.55;;
29430;SDS011;16404;49.902;10.074;2023-11-19T01:25:29;14.98;;;7.90;;
29430;SDS011;16404;49.902;10.074;2023-11-19T01:28:14;12.65;;;7.32;;
29430;SDS011;16404;49.902;10.074;2023-11-19T01:30:58;15.23;;;8.45;;
29430;SDS011;16404;49.902;10.074;2023-11-19T01:33:43;10.10;;;7.38;;
29430;SDS011;16404;49.902;10.074;2023-11-19T01:36:28;13.85;;;7.18;;
29430;SDS011;16404;49.902;10.074;2023-11-19T01:39:13;13.23;;;7.65;;
29430;SDS011;16404;49.902;10.074;2023-11-19T01:42:00;11.73;;;7.40;;
29430;SDS011;16404;49.902;10.074;2023-11-19T01:44:54;10.52;;;6.78;;
29430;SDS011;16404;49.902;10.074;2023-11-19T01:47:42;11.98;;;6.75;;
29430;SDS011;16404;49.902;10.074;2023-11-19T01:50:27;12.98;;;7.88;;
29430;SDS011;16404;49.902;10.074;2023-11-19T01:53:12;14.38;;;7.68;;
29430;SDS011;16404;49.902;10.074;2023-11-19T01:55:57;10.00;;;6.63;;
29430;SDS011;16404;49.902;10.074;2023-11-19T01:58:41;11.90;;;7.20;;
29430;SDS011;16404;49.902;10.074;2023-11-19T02:01:28;11.90;;;7.40;;
29430;SDS011;16404;49.902;10.074;2023-11-19T02:04:13;12.57;;;7.45;;
29430;SDS011;16404;49.902;10.074;2023-11-19T02:09:43;14.15;;;7.30;;
29430;SDS011;16404;49.902;10.074;2023-11-19T02:12:28;15.10;;;8.48;;
29430;SDS011;16404;49.902;10.074;2023-11-19T02:15:13;15.23;;;8.43;;
29430;SDS011;16404;49.902;10.074;2023-11-19T02:18:13;11.50;;;8.13;;
29430;SDS011;16404;49.902;10.074;2023-11-19T02:21:02;11.60;;;7.32;;
29430;SDS011;16404;49.902;10.074;2023-11-19T02:23:46;12.45;;;7.55;;
29430;SDS011;16404;49.902;10.074;2023-11-19T02:29:54;14.27;;;6.53;;
29430;SDS011;16404;49.902;10.074;2023-11-19T02:32:39;8.68;;;6.10;;
29430;SDS011;16404;49.902;10.074;2023-11-19T02:35:25;9.68;;;6.18;;
29430;SDS011;16404;49.902;10.074;2023-11-19T02:38:10;9.57;;;6.05;;
29430;SDS011;16404;49.902;10.074;2023-11-19T02:40:54;8.38;;;5.82;;
29430;SDS011;16404;49.902;10.074;2023-11-19T02:43:39;9.15;;;5.40;;
29430;SDS011;16404;49.902;10.074;2023-11-19T02:46:24;6.80;;;4.75;;
29430;SDS011;16404;49.902;10.074;2023-11-19T02:49:08;8.05;;;4.57;;
29430;SDS011;16404;49.902;10.074;2023-11-19T02:51:53;5.25;;;4.10;;
29430;SDS011;16404;49.902;10.074;2023-11-19T02:54:37;8.57;;;4.90;;
29430;SDS011;16404;49.902;10.074;2023-11-19T02:57:22;8.60;;;5.03;;
29430;SDS011;16404;49.902;10.074;2023-11-19T03:00:07;8.05;;;4.68;;
29430;SDS011;16404;49.902;10.074;2023-11-19T03:02:56;9.40;;;5.18;;
29430;SDS011;16404;49.902;10.074;2023-11-19T03:05:43;10.43;;;6.30;;
29430;SDS011;16404;49.902;10.074;2023-11-19T03:08:29;7.55;;;5.30;;
29430;SDS011;16404;49.902;10.074;2023-11-19T03:11:14;8.43;;;5.28;;
29430;SDS011;16404;49.902;10.074;2023-11-19T03:13:58;8.45;;;4.93;;
29430;SDS011;16404;49.902;10.074;2023-11-19T03:16:46;7.05;;;4.75;;
29430;SDS011;16404;49.902;10.074;2023-11-19T03:19:31;7.13;;;4.63;;
29430;SDS011;16404;49.902;10.074;2023-11-19T03:22:15;6.05;;;4.55;;
29430;SDS011;16404;49.902;10.074;2023-11-19T03:25:00;7.05;;;4.72;;
29430;SDS011;16404;49.902;10.074;2023-11-19T03:27:44;7.07;;;3.90;;
29430;SDS011;16404;49.902;10.074;2023-11-19T03:30:29;5.72;;;3.97;;
29430;SDS011;16404;49.902;10.074;2023-11-19T03:35:58;4.75;;;3.38;;
29430;SDS011;16404;49.902;10.074;2023-11-19T03:38:43;6.00;;;3.33;;
29430;SDS011;16404;49.902;10.074;2023-11-19T03:41:27;6.25;;;3.28;;
29430;SDS011;16404;49.902;10.074;2023-11-19T03:44:12;4.45;;;3.30;;
29430;SDS011;16404;49.902;10.074;2023-11-19T03:46:57;4.40;;;3.55;;
29430;SDS011;16404;49.902;10.074;2023-11-19T03:49:41;3.67;;;3.00;;
29430;SDS011;16404;49.902;10.074;2023-11-19T03:52:26;3.92;;;3.42;;
29430;SDS011;16404;49.902;10.074;2023-11-19T03:55:13;3.70;;;3.30;;
29430;SDS011;16404;49.902;10.074;2023-11-19T03:57:57;3.35;;;2.75;;
29430;SDS011;16404;49.902;10.074;2023-11-19T04:00:42;5.82;;;3.20;;
29430;SDS011;16404;49.902;10.074;2023-11-19T04:03:27;5.93;;;2.97;;
29430;SDS011;16404;49.902;10.074;2023-11-19T04:06:11;7.25;;;2.80;;
29430;SDS011;16404;49.902;10.074;2023-11-19T04:08:56;4.00;;;2.83;;
29430;SDS011;16404;49.902;10.074;2023-11-19T04:11:41;3.10;;;2.80;;
29430;SDS011;16404;49.902;10.074;2023-11-19T04:14:25;4.55;;;2.80;;
29430;SDS011;16404;49.902;10.074;2023-11-19T04:17:10;4.30;;;3.10;;
29430;SDS011;16404;49.902;10.074;2023-11-19T04:19:54;4.45;;;2.95;;
29430;SDS011;16404;49.902;10.074;2023-11-19T04:22:39;3.45;;;2.70;;
29430;SDS011;16404;49.902;10.074;2023-11-19T04:28:10;3.47;;;2.40;;
29430;SDS011;16404;49.902;10.074;2023-11-19T04:30:54;2.65;;;2.15;;
29430;SDS011;16404;49.902;10.074;2023-11-19T04:33:39;2.78;;;1.90;;
29430;SDS011;16404;49.902;10.074;2023-11-19T04:36:24;2.67;;;1.75;;
29430;SDS011;16404;49.902;10.074;2023-11-19T04:39:08;1.95;;;1.83;;
29430;SDS011;16404;49.902;10.074;2023-11-19T04:41:53;1.98;;;1.83;;
29430;SDS011;16404;49.902;10.074;2023-11-19T04:44:37;2.05;;;1.83;;
29430;SDS011;16404;49.902;10.074;2023-11-19T04:47:22;2.05;;;1.58;;
29430;SDS011;16404;49.902;10.074;2023-11-19T04:50:07;1.70;;;1.60;;
29430;SDS011;16404;49.902;10.074;2023-11-19T04:52:54;2.58;;;1.80;;
29430;SDS011;16404;49.902;10.074;2023-11-19T04:55:39;2.00;;;1.40;;
29430;SDS011;16404;49.902;10.074;2023-11-19T04:58:24;1.52;;;1.40;;
29430;SDS011;16404;49.902;10.074;2023-11-19T05:01:13;3.53;;;1.85;;
29430;SDS011;16404;49.902;10.074;2023-11-19T05:04:01;1.98;;;1.77;;
29430;SDS011;16404;49.902;10.074;2023-11-19T05:06:45;1.70;;;1.60;;
29430;SDS011;16404;49.902;10.074;2023-11-19T05:09:30;2.38;;;2.17;;
29430;SDS011;16404;49.902;10.074;2023-11-19T05:12:15;3.20;;;2.17;;
29430;SDS011;16404;49.902;10.074;2023-11-19T05:14:59;1.67;;;1.58;;
29430;SDS011;16404;49.902;10.074;2023-11-19T05:17:44;2.00;;;1.80;;
29430;SDS011;16404;49.902;10.074;2023-11-19T05:20:29;2.40;;;1.60;;
29430;SDS011;16404;49.902;10.074;2023-11-19T05:23:13;1.80;;;1.70;;
29430;SDS011;16404;49.902;10.074;2023-11-19T05:25:58;2.10;;;1.60;;
29430;SDS011;16404;49.902;10.074;2023-11-19T05:28:42;2.55;;;2.20;;
29430;SDS011;16404;49.902;10.074;2023-11-19T05:31:27;1.70;;;1.60;;
29430;SDS011;16404;49.902;10.074;2023-11-19T05:34:12;1.90;;;1.70;;
29430;SDS011;16404;49.902;10.074;2023-11-19T05:36:58;1.58;;;1.48;;
29430;SDS011;16404;49.902;10.074;2023-11-19T05:42:28;1.60;;;1.50;;
29430;SDS011;16404;49.902;10.074;2023-11-19T05:45:13;1.95;;;1.85;;
29430;SDS011;16404;49.902;10.074;2023-11-19T05:47:57;2.17;;;1.98;;
29430;SDS011;16404;49.902;10.074;2023-11-19T05:50:42;2.53;;;1.98;;
29430;SDS011;16404;49.902;10.074;2023-11-19T05:53:27;3.65;;;2.03;;
29430;SDS011;16404;49.902;10.074;2023-11-19T05:56:11;3.55;;;2.10;;
29430;SDS011;16404;49.902;10.074;2023-11-19T05:58:56;5.43;;;3.70;;
29430;SDS011;16404;49.902;10.074;2023-11-19T06:01:41;8.40;;;4.32;;
29430;SDS011;16404;49.902;10.074;2023-11-19T06:04:26;4.63;;;3.08;;
29430;SDS011;16404;49.902;10.074;2023-11-19T06:07:10;4.55;;;3.65;;
29430;SDS011;16404;49.902;10.074;2023-11-19T06:09:55;7.28;;;4.88;;
29430;SDS011;16404;49.902;10.074;2023-11-19T06:12:39;8.50;;;5.15;;
29430;SDS011;16404;49.902;10.074;2023-11-19T06:18:12;10.60;;;6.15;;
29430;SDS011;16404;49.902;10.074;2023-11-19T06:20:57;10.70;;;5.93;;
29430;SDS011;16404;49.902;10.074;2023-11-19T06:23:42;6.88;;;4.28;;
29430;SDS011;16404;49.902;10.074;2023-11-19T06:26:27;5.90;;;4.30;;
29430;SDS011;16404;49.902;10.074;2023-11-19T06:29:11;7.40;;;4.38;;
29430;SDS011;16404;49.902;10.074;2023-11-19T06:31:56;4.32;;;3.50;;
29430;SDS011;16404;49.902;10.074;2023-11-19T06:34:41;2.85;;;2.50;;
29430;SDS011;16404;49.902;10.074;2023-11-19T06:37:26;2.38;;;2.10;;
29430;SDS011;16404;49.902;10.074;2023-11-19T06:40:11;4.05;;;2.90;;
29430;SDS011;16404;49.902;10.074;2023-11-19T06:42:56;4.75;;;2.47;;
29430;SDS011;16404;49.902;10.074;2023-11-19T06:45:40;4.25;;;2.38;;
29430;SDS011;16404;49.902;10.074;2023-11-19T06:48:25;3.25;;;2.63;;
29430;SDS011;16404;49.902;10.074;2023-11-19T06:51:10;4.97;;;2.53;;
29430;SDS011;16404;49.902;10.074;2023-11-19T06:53:57;5.03;;;2.63;;
29430;SDS011;16404;49.902;10.074;2023-11-19T06:56:43;3.80;;;2.60;;
29430;SDS011;16404;49.902;10.074;2023-11-19T06:59:27;3.33;;;2.50;;
29430;SDS011;16404;49.902;10.074;2023-11-19T07:02:13;5.53;;;3.20;;
29430;SDS011;16404;49.902;10.074;2023-11-19T07:04:58;6.43;;;4.28;;
29430;SDS011;16404;49.902;10.074;2023-11-19T07:07:43;11.25;;;5.13;;
29430;SDS011;16404;49.902;10.074;2023-11-19T07:10:29;3.67;;;3.13;;
29430;SDS011;16404;49.902;10.074;2023-11-19T07:13:14;12.48;;;7.05;;
29430;SDS011;16404;49.902;10.074;2023-11-19T07:15:58;7.00;;;4.10;;
29430;SDS011;16404;49.902;10.074;2023-11-19T07:18:43;16.23;;;6.70;;
29430;SDS011;16404;49.902;10.074;2023-11-19T07:21:28;17.38;;;7.50;;
29430;SDS011;16404;49.902;10.074;2023-11-19T07:24:12;9.07;;;5.45;;
29430;SDS011;16404;49.902;10.074;2023-11-19T07:26:57;13.52;;;7.60;;
29430;SDS011;16404;49.902;10.074;2023-11-19T07:29:43;7.97;;;5.03;;
29430;SDS011;16404;49.902;10.074;2023-11-19T07:32:28;8.55;;;4.63;;
29430;SDS011;16404;49.902;10.074;2023-11-19T07:35:13;11.15;;;6.47;;
29430;SDS011;16404;49.902;10.074;2023-11-19T07:37:57;7.10;;;4.82;;
29430;SDS011;16404;49.902;10.074;2023-11-19T07:40:42;15.38;;;6.88;;
29430;SDS011;16404;49.902;10.074;2023-11-19T07:43:27;30.98;;;14.05;;
29430;SDS011;16404;49.902;10.074;2023-11-19T07:46:12;7.22;;;5.07;;
29430;SDS011;16404;49.902;10.074;2023-11-19T07:48:57;6.88;;;5.47;;
29430;SDS011;16404;49.902;10.074;2023-11-19T07:51:42;7.30;;;5.25;;
29430;SDS011;16404;49.902;10.074;2023-11-19T07:54:26;7.07;;;4.70;;
29430;SDS011;16404;49.902;10.074;2023-11-19T07:57:11;7.25;;;4.13;;
29430;SDS011;16404;49.902;10.074;2023-11-19T07:59:56;4.95;;;4.35;;
29430;SDS011;16404;49.902;10.074;2023-11-19T08:02:45;5.07;;;4.25;;
29430;SDS011;16404;49.902;10.074;2023-11-19T08:05:29;5.43;;;4.35;;
29430;SDS011;16404;49.902;10.074;2023-11-19T08:08:16;4.85;;;4.38;;
29430;SDS011;16404;49.902;10.074;2023-11-19T08:11:01;4.28;;;3.45;;
29430;SDS011;16404;49.902;10.074;2023-11-19T08:13:46;4.57;;;3.55;;
29430;SDS011;16404;49.902;10.074;2023-11-19T08:16:30;7.82;;;5.60;;
29430;SDS011;16404;49.902;10.074;2023-11-19T08:19:15;8.90;;;6.60;;
29430;SDS011;16404;49.902;10.074;2023-11-19T08:21:59;8.68;;;6.97;;
29430;SDS011;16404;49.902;10.074;2023-11-19T08:24:44;14.35;;;13.07;;
29430;SDS011;16404;49.902;10.074;2023-11-19T08:27:29;5.10;;;4.60;;
29430;SDS011;16404;49.902;10.074;2023-11-19T08:30:13;3.65;;;3.22;;
29430;SDS011;16404;49.902;10.074;2023-11-19T08:32:58;3.22;;;2.92;;
29430;SDS011;16404;49.902;10.074;2023-11-19T08:35:46;3.42;;;2.50;;
29430;SDS011;16404;49.902;10.074;2023-11-19T08:38:31;4.05;;;3.65;;
29430;SDS011;16404;49.902;10.074;2023-11-19T08:41:16;5.10;;;4.10;;
29430;SDS011;16404;49.902;10.074;2023-11-19T08:44:01;3.90;;;3.60;;
29430;SDS011;16404;49.902;10.074;2023-11-19T08:46:49;3.58;;;3.28;;
29430;SDS011;16404;49.902;10.074;2023-11-19T08:49:33;2.42;;;2.22;;
29430;SDS011;16404;49.902;10.074;2023-11-19T08:52:18;2.42;;;2.10;;
29430;SDS011;16404;49.902;10.074;2023-11-19T08:55:03;4.00;;;3.40;;
29430;SDS011;16404;49.902;10.074;2023-11-19T08:57:53;2.28;;;2.03;;
29430;SDS011;16404;49.902;10.074;2023-11-19T09:00:38;3.50;;;2.42;;
29430;SDS011;16404;49.902;10.074;2023-11-19T09:03:22;3.03;;;1.98;;
29430;SDS011;16404;49.902;10.074;2023-11-19T09:06:07;2.53;;;1.65;;
29430;SDS011;16404;49.902;10.074;2023-11-19T09:08:51;2.53;;;2.30;;
29430;SDS011;16404;49.902;10.074;2023-11-19T09:11:36;2.40;;;2.05;;
29430;SDS011;16404;49.902;10.074;2023-11-19T09:14:21;3.00;;;2.70;;
29430;SDS011;16404;49.902;10.074;2023-11-19T09:17:09;2.75;;;2.55;;
29430;SDS011;16404;49.902;10.074;2023-11-19T09:19:54;3.40;;;3.08;;
29430;SDS011;16404;49.902;10.074;2023-11-19T09:22:38;3.53;;;3.08;;
29430;SDS011;16404;49.902;10.074;2023-11-19T09:25:23;3.55;;;2.30;;
29430;SDS011;16404;49.902;10.074;2023-11-19T09:28:08;5.40;;;3.13;;
29430;SDS011;16404;49.902;10.074;2023-11-19T09:30:52;5.03;;;3.03;;
29430;SDS011;16404;49.902;10.074;2023-11-19T09:33:37;4.93;;;2.97;;
29430;SDS011;16404;49.902;10.074;2023-11-19T09:36:22;3.97;;;2.60;;
29430;SDS011;16404;49.902;10.074;2023-11-19T09:39:06;2.45;;;2.10;;
29430;SDS011;16404;49.902;10.074;2023-11-19T09:41:51;3.42;;;2.20;;
29430;SDS011;16404;49.902;10.074;2023-11-19T09:44:39;3.40;;;2.35;;
29430;SDS011;16404;49.902;10.074;2023-11-19T09:47:26;3.67;;;2.72;;
29430;SDS011;16404;49.902;10.074;2023-11-19T09:50:14;8.13;;;3.55;;
29430;SDS011;16404;49.902;10.074;2023-11-19T09:53:02;6.10;;;3.00;;
29430;SDS011;16404;49.902;10.074;2023-11-19T09:55:46;6.97;;;2.30;;
29430;SDS011;16404;49.902;10.074;2023-11-19T10:01:16;10.43;;;2.30;;
29430;SDS011;16404;49.902;10.074;2023-11-19T10:04:01;11.50;;;3.60;;
29430;SDS011;16404;49.902;10.074;2023-11-19T10:06:45;5.43;;;2.00;;
29430;SDS011;16404;49.902;10.074;2023-11-19T10:09:30;10.95;;;3.33;;
29430;SDS011;16404;49.902;10.074;2023-11-19T10:12:15;4.75;;;1.80;;
29430;SDS011;16404;49.902;10.074;2023-11-19T10:15:00;3.05;;;1.60;;
29430;SDS011;16404;49.902;10.074;2023-11-19T10:17:45;9.70;;;3.03;;
29430;SDS011;16404;49.902;10.074;2023-11-19T10:20:34;14.00;;;4.22;;
29430;SDS011;16404;49.902;10.074;2023-11-19T10:23:20;9.10;;;2.65;;
29430;SDS011;16404;49.902;10.074;2023-11-19T10:26:05;6.68;;;2.13;;
29430;SDS011;16404;49.902;10.074;2023-11-19T10:28:50;12.27;;;2.92;;
29430;SDS011;16404;49.902;10.074;2023-11-19T10:31:34;8.85;;;2.38;;
29430;SDS011;16404;49.902;10.074;2023-11-19T10:34:25;8.40;;;2.10;;
29430;SDS011;16404;49.902;10.074;2023-11-19T10:37:27;11.48;;;3.28;;
29430;SDS011;16404;49.902;10.074;2023-11-19T10:40:13;13.07;;;2.92;;
29430;SDS011;16404;49.902;10.074;2023-11-19T10:43:02;6.85;;;1.77;;
29430;SDS011;16404;49.902;10.074;2023-11-19T10:45:47;12.50;;;3.10;;
29430;SDS011;16404;49.902;10.074;2023-11-19T10:51:19;6.15;;;1.63;;
29430;SDS011;16404;49.902;10.074;2023-11-19T10:54:07;4.25;;;1.70;;
29430;SDS011;16404;49.902;10.074;2023-11-19T10:56:54;6.38;;;1.50;;
29430;SDS011;16404;49.902;10.074;2023-11-19T10:59:42;3.60;;;1.35;;
29430;SDS011;16404;49.902;10.074;2023-11-19T11:02:29;3.50;;;1.10;;
29430;SDS011;16404;49.902;10.074;2023-11-19T11:05:19;7.75;;;1.70;;
29430;SDS011;16404;49.902;10.074;2023-11-19T11:08:06;6.05;;;1.63;;
29430;SDS011;16404;49.902;10.074;2023-11-19T11:10:55;7.45;;;1.63;;
29430;SDS011;16404;49.902;10.074;2023-11-19T11:13:42;4.20;;;1.30;;
29430;SDS011;16404;49.902;10.074;2023-11-19T11:16:26;5.85;;;1.67;;
29430;SDS011;16404;49.902;10.074;2023-11-19T11:19:13;5.95;;;1.80;;
29430;SDS011;16404;49.902;10.074;2023-11-19T11:21:59;5.97;;;1.67;;
29430;SDS011;16404;49.902;10.074;2023-11-19T11:25:04;3.88;;;1.20;;
29430;SDS011;16404;49.902;10.074;2023-11-19T11:40:21;7.13;;;1.50;;
29430;SDS011;16404;49.902;10.074;2023-11-19T11:49:17;5.45;;;1.30;;
29430;SDS011;16404;49.902;10.074;2023-11-19T11:52:09;7.10;;;1.67;;
29430;SDS011;16404;49.902;10.074;2023-11-19T11:55:02;8.63;;;1.60;;
29430;SDS011;16404;49.902;10.074;2023-11-19T11:57:49;5.75;;;1.60;;
29430;SDS011;16404;49.902;10.074;2023-11-19T12:00:37;5.22;;;1.48;;
29430;SDS011;16404;49.902;10.074;2023-11-19T12:03:23;7.22;;;1.65;;
29430;SDS011;16404;49.902;10.074;2023-11-19T12:06:07;8.25;;;1.50;;
29430;SDS011;16404;49.902;10.074;2023-11-19T12:08:52;6.25;;;2.00;;
29430;SDS011;16404;49.902;10.074;2023-11-19T12:11:37;7.25;;;2.10;;
29430;SDS011;16404;49.902;10.074;2023-11-19T12:14:59;8.70;;;2.33;;
29430;SDS011;16404;49.902;10.074;2023-11-19T12:17:42;7.75;;;2.05;;
29430;SDS011;16404;49.902;10.074;2023-11-19T12:20:30;5.50;;;2.10;;
29430;SDS011;16404;49.902;10.074;2023-11-19T12:23:21;4.45;;;1.88;;
29430;SDS011;16404;49.902;10.074;2023-11-19T12:26:06;6.95;;;1.80;;
29430;SDS011;16404;49.902;10.074;2023-11-19T12:28:58;6.38;;;1.77;;
29430;SDS011;16404;49.902;10.074;2023-11-19T12:31:44;4.95;;;1.38;;
29430;SDS011;16404;49.902;10.074;2023-11-19T12:34:28;6.32;;;1.40;;
29430;SDS011;16404;49.902;10.074;2023-11-19T12:37:13;5.68;;;1.60;;
29430;SDS011;16404;49.902;10.074;2023-11-19T12:39:58;6.15;;;1.65;;
29430;SDS011;16404;49.902;10.074;2023-11-19T12:42:43;4.72;;;1.42;;
29430;SDS011;16404;49.902;10.074;2023-11-19T12:45:37;7.07;;;1.93;;
29430;SDS011;16404;49.902;10.074;2023-11-19T12:48:23;4.53;;;1.13;;
29430;SDS011;16404;49.902;10.074;2023-11-19T12:51:07;5.10;;;1.30;;
29430;SDS011;16404;49.902;10.074;2023-11-19T12:53:52;7.57;;;1.33;;
29430;SDS011;16404;49.902;10.074;2023-11-19T12:56:51;3.92;;;1.50;;
29430;SDS011;16404;49.902;10.074;2023-11-19T12:59:36;7.50;;;1.93;;
29430;SDS011;16404;49.902;10.074;2023-11-19T13:02:21;9.68;;;1.70;;
29430;SDS011;16404;49.902;10.074;2023-11-19T13:05:26;3.03;;;1.25;;
29430;SDS011;16404;49.902;10.074;2023-11-19T13:08:17;5.82;;;1.92;;
29430;SDS011;16404;49.902;10.074;2023-11-19T13:11:02;8.15;;;1.80;;
29430;SDS011;16404;49.902;10.074;2023-11-19T13:13:56;7.10;;;1.48;;
29430;SDS011;16404;49.902;10.074;2023-11-19T13:16:41;6.28;;;1.17;;
29430;SDS011;16404;49.902;10.074;2023-11-19T13:19:26;4.80;;;1.40;;
29430;SDS011;16404;49.902;10.074;2023-11-19T13:22:10;6.38;;;1.40;;
29430;SDS011;16404;49.902;10.074;2023-11-19T13:24:55;4.80;;;1.38;;
29430;SDS011;16404;49.902;10.074;2023-11-19T13:27:40;5.57;;;1.47;;
29430;SDS011;16404;49.902;10.074;2023-11-19T13:30:24;6.00;;;1.83;;
29430;SDS011;16404;49.902;10.074;2023-11-19T13:33:09;4.07;;;1.40;;
29430;SDS011;16404;49.902;10.074;2023-11-19T13:35:56;8.32;;;1.77;;
29430;SDS011;16404;49.902;10.074;2023-11-19T13:38:41;5.45;;;1.58;;
29430;SDS011;16404;49.902;10.074;2023-11-19T13:44:10;5.10;;;1.33;;
29430;SDS011;16404;49.902;10.074;2023-11-19T13:46:55;5.72;;;1.90;;
29430;SDS011;16404;49.902;10.074;2023-11-19T13:49:39;4.78;;;1.45;;
29430;SDS011;16404;49.902;10.074;2023-11-19T13:52:24;7.57;;;1.88;;
29430;SDS011;16404;49.902;10.074;2023-11-19T13:55:09;4.95;;;2.00;;
29430;SDS011;16404;49.902;10.074;2023-11-19T14:00:38;6.95;;;1.50;;
29430;SDS011;16404;49.902;10.074;2023-11-19T14:03:23;4.80;;;1.42;;
29430;SDS011;16404;49.902;10.074;2023-11-19T14:06:08;5.28;;;1.40;;
29430;SDS011;16404;49.902;10.074;2023-11-19T14:08:52;8.75;;;2.05;;
29430;SDS011;16404;49.902;10.074;2023-11-19T14:11:37;10.43;;;1.90;;
29430;SDS011;16404;49.902;10.074;2023-11-19T14:14:22;4.05;;;2.03;;
29430;SDS011;16404;49.902;10.074;2023-11-19T14:17:06;4.78;;;1.50;;
29430;SDS011;16404;49.902;10.074;2023-11-19T14:22:36;4.63;;;1.50;;
29430;SDS011;16404;49.902;10.074;2023-11-19T14:25:20;5.22;;;1.58;;
29430;SDS011;16404;49.902;10.074;2023-11-19T14:28:07;4.22;;;1.05;;
29430;SDS011;16404;49.902;10.074;2023-11-19T14:30:51;3.55;;;1.63;;
29430;SDS011;16404;49.902;10.074;2023-11-19T14:33:40;5.40;;;1.80;;
29430;SDS011;16404;49.902;10.074;2023-11-19T14:36:25;12.88;;;2.25;;
29430;SDS011;16404;49.902;10.074;2023-11-19T14:39:10;6.45;;;1.70;;
29430;SDS011;16404;49.902;10.074;2023-11-19T14:41:54;10.00;;;2.30;;
29430;SDS011;16404;49.902;10.074;2023-11-19T14:44:42;7.13;;;1.50;;
29430;SDS011;16404;49.902;10.074;2023-11-19T14:47:26;5.55;;;1.30;;
29430;SDS011;16404;49.902;10.074;2023-11-19T14:50:11;6.47;;;1.27;;
29430;SDS011;16404;49.902;10.074;2023-11-19T14:52:55;4.45;;;1.40;;
29430;SDS011;16404;49.902;10.074;2023-11-19T14:55:40;7.28;;;1.80;;
29430;SDS011;16404;49.902;10.074;2023-11-19T14:58:25;8.05;;;1.88;;
29430;SDS011;16404;49.902;10.074;2023-11-19T15:01:13;4.85;;;1.60;;
29430;SDS011;16404;49.902;10.074;2023-11-19T15:03:57;6.90;;;1.73;;
29430;SDS011;16404;49.902;10.074;2023-11-19T15:06:42;6.25;;;1.35;;
29430;SDS011;16404;49.902;10.074;2023-11-19T15:09:27;12.55;;;2.28;;
29430;SDS011;16404;49.902;10.074;2023-11-19T15:12:11;8.55;;;2.03;;
29430;SDS011;16404;49.902;10.074;2023-11-19T15:14:56;8.55;;;1.98;;
29430;SDS011;16404;49.902;10.074;2023-11-19T15:17:40;6.72;;;1.95;;
29430;SDS011;16404;49.902;10.074;2023-11-19T15:20:25;10.52;;;1.70;;
29430;SDS011;16404;49.902;10.074;2023-11-19T15:23:13;4.90;;;1.42;;
29430;SDS011;16404;49.902;10.074;2023-11-19T15:25:59;7.72;;;1.50;;
29430;SDS011;16404;49.902;10.074;2023-11-19T15:28:43;6.07;;;1.45;;
29430;SDS011;16404;49.902;10.074;2023-11-19T15:31:28;6.20;;;1.35;;
29430;SDS011;16404;49.902;10.074;2023-11-19T15:34:13;6.60;;;1.20;;
29430;SDS011;16404;49.902;10.074;2023-11-19T15:36:57;8.88;;;1.85;;
29430;SDS011;16404;49.902;10.074;2023-11-19T15:39:42;8.80;;;1.90;;
29430;SDS011;16404;49.902;10.074;2023-11-19T15:42:26;10.15;;;2.00;;
29430;SDS011;16404;49.902;10.074;2023-11-19T15:45:11;10.40;;;2.10;;
29430;SDS011;16404;49.902;10.074;2023-11-19T15:47:56;8.90;;;1.98;;
29430;SDS011;16404;49.902;10.074;2023-11-19T15:50:40;6.15;;;2.00;;
29430;SDS011;16404;49.902;10.074;2023-11-19T15:53:28;8.32;;;2.00;;
29430;SDS011;16404;49.902;10.074;2023-11-19T15:56:13;8.55;;;2.40;;
29430;SDS011;16404;49.902;10.074;2023-11-19T15:58:58;9.65;;;2.50;;
29430;SDS011;16404;49.902;10.074;2023-11-19T16:01:42;11.40;;;2.50;;
29430;SDS011;16404;49.902;10.074;2023-11-19T16:04:27;8.90;;;2.28;;
29430;SDS011;16404;49.902;10.074;2023-11-19T16:07:12;11.43;;;1.70;;
29430;SDS011;16404;49.902;10.074;2023-11-19T16:09:59;9.05;;;1.88;;
29430;SDS011;16404;49.902;10.074;2023-11-19T16:12:47;6.78;;;2.10;;
29430;SDS011;16404;49.902;10.074;2023-11-19T16:15:32;7.75;;;1.90;;
29430;SDS011;16404;49.902;10.074;2023-11-19T16:18:18;9.88;;;2.17;;
29430;SDS011;16404;49.902;10.074;2023-11-19T16:21:02;7.90;;;2.08;;
29430;SDS011;16404;49.902;10.074;2023-11-19T16:23:47;9.30;;;1.83;;
29430;SDS011;16404;49.902;10.074;2023-11-19T16:26:32;3.63;;;1.48;;
29430;SDS011;16404;49.902;10.074;2023-11-19T16:29:17;5.88;;;1.40;;
29430;SDS011;16404;49.902;10.074;2023-11-19T16:32:01;7.93;;;1.92;;
29430;SDS011;16404;49.902;10.074;2023-11-19T16:34:46;7.95;;;1.77;;
29430;SDS011;16404;49.902;10.074;2023-11-19T16:37:31;9.77;;;2.97;;
29430;SDS011;16404;49.902;10.074;2023-11-19T16:40:16;7.65;;;1.63;;
29430;SDS011;16404;49.902;10.074;2023-11-19T16:43:01;7.38;;;1.40;;
29430;SDS011;16404;49.902;10.074;2023-11-19T16:45:45;6.82;;;1.60;;
29430;SDS011;16404;49.902;10.074;2023-11-19T16:48:30;7.43;;;1.90;;
29430;SDS011;16404;49.902;10.074;2023-11-19T16:51:14;7.22;;;2.50;;
29430;SDS011;16404;49.902;10.074;2023-11-19T16:53:59;5.35;;;2.15;;
29430;SDS011;16404;49.902;10.074;2023-11-19T16:56:45;7.88;;;2.40;;
29430;SDS011;16404;49.902;10.074;2023-11-19T16:59:30;3.85;;;1.40;;
29430;SDS011;16404;49.902;10.074;2023-11-19T17:02:14;11.77;;;2.10;;
29430;SDS011;16404;49.902;10.074;2023-11-19T17:04:59;10.07;;;1.83;;
29430;SDS011;16404;49.902;10.074;2023-11-19T17:07:43;10.60;;;2.45;;
29430;SDS011;16404;49.902;10.074;2023-11-19T17:10:28;3.38;;;1.55;;
29430;SDS011;16404;49.902;10.074;2023-11-19T17:13:13;2.55;;;1.40;;
29430;SDS011;16404;49.902;10.074;2023-11-19T17:15:58;7.97;;;2.42;;